createdAt,value
2023-02-06T00:01:47.327Z,4.53
2023-02-06T00:04:33.110Z,4.53
2023-02-06T00:07:18.496Z,4.20
2023-02-06T00:10:04.292Z,5.72
2023-02-06T00:12:50.444Z,4.03
2023-02-06T00:15:36.453Z,3.53
2023-02-06T00:18:22.015Z,4.82
2023-02-06T00:21:07.573Z,3.30
2023-02-06T00:23:58.653Z,4.43
2023-02-06T00:26:44.801Z,4.18
2023-02-06T00:29:30.829Z,4.30
2023-02-06T00:32:17.545Z,4.05
2023-02-06T00:35:04.234Z,4.25
2023-02-06T00:37:50.375Z,3.80
2023-02-06T00:40:38.838Z,5.10
2023-02-06T00:43:24.128Z,3.95
2023-02-06T00:46:09.660Z,4.93
2023-02-06T00:48:56.436Z,4.45
2023-02-06T00:51:42.645Z,4.03
2023-02-06T00:54:27.979Z,4.78
2023-02-06T00:57:13.969Z,3.90
2023-02-06T00:59:59.691Z,4.68
2023-02-06T01:02:45.247Z,3.95
2023-02-06T01:05:32.257Z,4.18
2023-02-06T01:08:18.704Z,4.63
2023-02-06T01:11:20.417Z,4.43
2023-02-06T01:14:06.532Z,4.40
2023-02-06T01:16:51.983Z,4.20
2023-02-06T01:19:41.309Z,4.57
2023-02-06T01:22:29.215Z,3.78
2023-02-06T01:25:14.836Z,3.30
2023-02-06T01:28:00.333Z,5.03
2023-02-06T01:30:45.874Z,3.78
2023-02-06T01:33:32.003Z,4.18
2023-02-06T01:36:23.404Z,4.30
2023-02-06T01:39:10.624Z,4.28
2023-02-06T01:41:56.398Z,4.47
2023-02-06T01:44:42.313Z,3.88
2023-02-06T01:47:28.497Z,4.25
2023-02-06T01:50:28.535Z,4.28
2023-02-06T01:53:17.330Z,4.13
2023-02-06T01:56:06.199Z,4.10
2023-02-06T01:58:58.009Z,4.22
2023-02-06T02:01:45.698Z,3.50
2023-02-06T02:04:33.428Z,4.13
2023-02-06T02:07:32.169Z,3.63
2023-02-06T02:10:18.376Z,4.03
2023-02-06T02:13:03.763Z,3.25
2023-02-06T02:16:03.163Z,3.92
2023-02-06T02:19:29.041Z,3.40
2023-02-06T02:23:07.192Z,3.60
2023-02-06T02:26:27.132Z,3.65
2023-02-06T02:29:34.162Z,3.78
2023-02-06T02:32:38.901Z,4.75
2023-02-06T02:35:55.233Z,3.70
2023-02-06T02:38:57.649Z,2.78
2023-02-06T02:41:49.663Z,4.20
2023-02-06T02:44:47.405Z,4.97
2023-02-06T02:47:44.544Z,4.15
2023-02-06T02:50:31.311Z,3.88
2023-02-06T02:53:17.478Z,4.18
2023-02-06T02:56:14.894Z,3.72
2023-02-06T02:59:09.339Z,3.35
2023-02-06T03:02:03.425Z,4.18
2023-02-06T03:05:11.606Z,3.53
2023-02-06T03:08:15.912Z,3.20
2023-02-06T03:11:18.510Z,3.65
2023-02-06T03:14:28.136Z,3.65
2023-02-06T03:17:21.095Z,3.35
2023-02-06T03:20:09.847Z,4.03
2023-02-06T03:23:00.125Z,3.80
2023-02-06T03:25:48.104Z,3.38
2023-02-06T03:28:38.902Z,4.05
2023-02-06T03:31:51.354Z,4.13
2023-02-06T03:34:52.111Z,4.85
2023-02-06T03:37:38.370Z,3.60
2023-02-06T03:40:26.939Z,4.32
2023-02-06T03:43:18.650Z,3.90
2023-02-06T03:46:06.435Z,5.03
2023-02-06T03:48:55.353Z,4.97
2023-02-06T03:51:50.197Z,5.05
2023-02-06T03:54:39.335Z,4.78
2023-02-06T03:57:28.101Z,5.72
2023-02-06T04:00:14.079Z,4.72
2023-02-06T04:03:00.619Z,4.75
2023-02-06T04:05:46.139Z,4.18
2023-02-06T04:08:31.513Z,5.80
2023-02-06T04:11:17.288Z,4.75
2023-02-06T04:14:03.095Z,4.05
2023-02-06T04:16:48.706Z,4.45
2023-02-06T04:19:34.994Z,4.05
2023-02-06T04:22:21.097Z,5.05
2023-02-06T04:25:07.441Z,4.78
2023-02-06T04:27:53.094Z,5.20
2023-02-06T04:30:38.769Z,5.10
2023-02-06T04:33:24.533Z,4.50
2023-02-06T04:36:10.604Z,6.05
2023-02-06T04:38:56.204Z,7.78
2023-02-06T04:41:41.465Z,9.65
2023-02-06T04:44:27.214Z,9.15
2023-02-06T04:47:12.617Z,8.48
2023-02-06T04:49:58.088Z,8.43
2023-02-06T04:52:43.463Z,6.57
2023-02-06T04:55:28.940Z,6.97
2023-02-06T04:58:14.997Z,6.15
2023-02-06T05:01:01.368Z,5.07
2023-02-06T05:03:47.892Z,4.68
2023-02-06T05:06:34.654Z,6.93
2023-02-06T05:09:20.278Z,4.90
2023-02-06T05:12:05.936Z,3.88
2023-02-06T05:14:51.807Z,4.45
2023-02-06T05:17:37.349Z,4.15
2023-02-06T05:20:22.827Z,4.13
2023-02-06T05:23:09.346Z,4.50
2023-02-06T05:25:55.364Z,4.88
2023-02-06T05:28:43.943Z,3.50
2023-02-06T05:31:30.727Z,3.45
2023-02-06T05:34:16.442Z,3.25
2023-02-06T05:37:02.325Z,6.63
2023-02-06T05:39:47.829Z,7.97
2023-02-06T05:42:33.310Z,6.95
2023-02-06T05:45:23.652Z,4.80
2023-02-06T05:48:10.749Z,4.40
2023-02-06T05:50:58.330Z,4.15
2023-02-06T05:53:44.238Z,7.38
2023-02-06T05:56:30.357Z,5.20
2023-02-06T05:59:16.229Z,4.38
2023-02-06T06:02:02.349Z,3.45
2023-02-06T06:04:49.051Z,4.55
2023-02-06T06:07:35.312Z,4.28
2023-02-06T06:10:21.298Z,4.53
2023-02-06T06:13:08.482Z,5.70
2023-02-06T06:15:54.470Z,7.20
2023-02-06T06:18:40.562Z,6.20
2023-02-06T06:21:25.916Z,6.47
2023-02-06T06:24:12.895Z,5.28
2023-02-06T06:27:00.069Z,6.78
2023-02-06T06:29:46.233Z,5.88
2023-02-06T06:32:32.021Z,7.35
2023-02-06T06:35:21.351Z,6.20
2023-02-06T06:38:06.767Z,6.82
2023-02-06T06:40:52.966Z,7.60
2023-02-06T06:43:39.471Z,9.00
2023-02-06T06:46:27.023Z,8.43
2023-02-06T06:49:13.274Z,7.38
2023-02-06T06:51:59.727Z,6.55
2023-02-06T06:54:45.715Z,4.95
2023-02-06T06:57:32.687Z,6.57
2023-02-06T07:00:19.184Z,12.07
2023-02-06T07:03:08.030Z,9.95
2023-02-06T07:05:57.160Z,7.35
2023-02-06T07:08:43.805Z,8.25
2023-02-06T07:11:31.985Z,9.70
2023-02-06T07:14:18.306Z,10.93
2023-02-06T07:17:04.476Z,11.20
2023-02-06T07:19:53.088Z,7.43
2023-02-06T07:22:39.342Z,5.93
2023-02-06T07:25:25.196Z,8.77
2023-02-06T07:28:10.660Z,8.85
2023-02-06T07:31:03.034Z,19.63
2023-02-06T07:33:49.111Z,7.97
2023-02-06T07:36:37.685Z,7.68
2023-02-06T07:39:23.427Z,6.13
2023-02-06T07:42:09.561Z,5.40
2023-02-06T07:45:12.073Z,5.38
2023-02-06T07:47:58.226Z,5.95
2023-02-06T07:50:45.287Z,5.30
2023-02-06T07:53:32.422Z,6.35
2023-02-06T07:56:20.361Z,5.57
2023-02-06T07:59:06.821Z,6.72
2023-02-06T08:01:52.905Z,7.03
2023-02-06T08:04:42.968Z,6.93
2023-02-06T08:07:28.918Z,7.85
2023-02-06T08:10:14.959Z,11.82
2023-02-06T08:13:01.354Z,11.65
2023-02-06T08:15:47.053Z,7.70
2023-02-06T08:18:35.952Z,8.15
2023-02-06T08:21:24.522Z,6.07
2023-02-06T08:24:12.220Z,5.43
2023-02-06T08:26:58.181Z,7.38
2023-02-06T08:29:44.034Z,12.68
2023-02-06T08:32:34.788Z,5.78
2023-02-06T08:35:20.716Z,6.45
2023-02-06T08:38:07.415Z,6.05
2023-02-06T08:40:53.913Z,6.75
2023-02-06T08:43:40.195Z,9.70
2023-02-06T08:46:29.963Z,10.75
2023-02-06T08:49:20.822Z,6.88
2023-02-06T08:52:06.434Z,9.63
2023-02-06T08:54:52.986Z,6.72
2023-02-06T08:57:42.153Z,6.72
2023-02-06T09:00:27.745Z,8.82
2023-02-06T09:03:13.194Z,5.72
2023-02-06T09:06:10.256Z,5.13
2023-02-06T09:08:57.980Z,4.45
2023-02-06T09:11:44.483Z,4.45
2023-02-06T09:14:30.769Z,5.63
2023-02-06T09:17:16.344Z,4.03
2023-02-06T09:20:03.139Z,3.83
2023-02-06T09:22:48.572Z,3.67
2023-02-06T09:25:34.817Z,3.80
2023-02-06T09:28:20.520Z,3.67
2023-02-06T09:31:10.271Z,3.67
2023-02-06T09:33:57.214Z,3.67
2023-02-06T09:36:43.271Z,3.72
2023-02-06T09:39:29.984Z,2.97
2023-02-06T09:42:37.829Z,4.53
2023-02-06T09:45:27.537Z,3.92
2023-02-06T09:48:25.003Z,3.75
2023-02-06T09:51:23.192Z,4.20
2023-02-06T09:54:39.712Z,3.67
2023-02-06T09:57:54.930Z,3.50
2023-02-06T10:00:53.258Z,3.90
2023-02-06T10:03:59.354Z,3.97
2023-02-06T10:07:12.988Z,28.17
2023-02-06T10:10:10.563Z,48.80
2023-02-06T10:13:05.177Z,50.67
2023-02-06T10:15:58.546Z,17.98
2023-02-06T10:18:54.780Z,19.30
2023-02-06T10:21:48.374Z,7.80
2023-02-06T10:24:49.223Z,6.65
2023-02-06T10:27:38.082Z,4.55
2023-02-06T10:30:37.880Z,4.88
2023-02-06T10:33:41.923Z,5.30
2023-02-06T10:37:01.961Z,4.20
2023-02-06T10:40:05.230Z,4.85
2023-02-06T10:43:18.754Z,7.07
2023-02-06T10:46:14.033Z,6.40
2023-02-06T10:49:03.581Z,7.68
2023-02-06T10:51:54.367Z,6.72
2023-02-06T10:54:48.473Z,6.35
2023-02-06T10:57:37.117Z,7.03
2023-02-06T11:00:27.164Z,12.32
2023-02-06T11:06:04.704Z,5.90
2023-02-06T11:08:50.464Z,6.28
2023-02-06T11:11:39.925Z,9.23
2023-02-06T11:14:30.986Z,12.85
2023-02-06T11:17:19.403Z,41.55
2023-02-06T11:20:24.987Z,25.27
2023-02-06T11:23:20.060Z,13.07
2023-02-06T11:26:09.081Z,9.70
2023-02-06T11:28:58.452Z,8.68
2023-02-06T11:32:00.395Z,9.23
2023-02-06T11:34:57.383Z,12.80
2023-02-06T11:37:43.116Z,8.10
2023-02-06T11:40:28.792Z,7.32
2023-02-06T11:43:24.663Z,12.20
2023-02-06T11:46:37.527Z,10.95
2023-02-06T11:49:29.796Z,8.82
2023-02-06T11:52:33.690Z,9.90
2023-02-06T11:55:24.275Z,8.25
2023-02-06T11:58:14.387Z,4.28
2023-02-06T12:01:05.590Z,3.83
2023-02-06T12:03:59.018Z,3.45
2023-02-06T12:06:45.950Z,3.55
2023-02-06T12:09:31.756Z,2.92
2023-02-06T12:12:39.506Z,3.90
2023-02-06T12:15:46.868Z,3.72
2023-02-06T12:18:39.758Z,2.60
2023-02-06T12:21:50.394Z,4.35
2023-02-06T12:24:44.542Z,3.80
2023-02-06T12:27:39.615Z,5.43
2023-02-06T12:30:45.432Z,8.95
2023-02-06T12:33:38.466Z,4.32
2023-02-06T12:36:34.118Z,6.80
2023-02-06T12:39:23.015Z,6.45
2023-02-06T12:42:33.358Z,7.82
2023-02-06T12:45:47.231Z,9.55
2023-02-06T12:49:02.618Z,9.50
2023-02-06T12:51:54.705Z,9.05
2023-02-06T12:54:50.794Z,12.27
2023-02-06T12:57:38.773Z,11.57
2023-02-06T13:00:59.962Z,8.60
2023-02-06T13:04:00.603Z,10.07
2023-02-06T13:07:01.236Z,8.35
2023-02-06T13:09:54.106Z,9.43
2023-02-06T13:12:41.207Z,9.88
2023-02-06T13:15:38.888Z,11.77
2023-02-06T13:18:45.028Z,12.82
2023-02-06T13:21:37.739Z,12.82
2023-02-06T13:24:23.452Z,9.27
2023-02-06T13:27:08.936Z,7.72
2023-02-06T13:29:55.835Z,6.60
2023-02-06T13:32:46.232Z,7.88
2023-02-06T13:35:34.911Z,6.95
2023-02-06T13:38:33.726Z,7.10
2023-02-06T13:41:28.809Z,6.75
2023-02-06T13:44:35.177Z,5.93
2023-02-06T13:47:51.700Z,6.45
2023-02-06T13:51:02.996Z,5.97
2023-02-06T13:54:17.256Z,4.90
2023-02-06T13:57:23.648Z,6.57
2023-02-06T14:00:15.758Z,6.30
2023-02-06T14:03:23.784Z,6.25
2023-02-06T14:06:45.214Z,5.40
2023-02-06T14:10:13.953Z,4.30
2023-02-06T14:13:18.403Z,6.28
2023-02-06T14:16:09.173Z,5.63
2023-02-06T14:19:17.805Z,7.00
2023-02-06T14:22:32.444Z,9.38
2023-02-06T14:25:36.702Z,7.20
2023-02-06T14:28:33.267Z,6.57
2023-02-06T14:31:35.247Z,6.15
2023-02-06T14:34:49.142Z,5.63
2023-02-06T14:37:45.259Z,6.25
2023-02-06T14:40:34.756Z,13.80
2023-02-06T14:43:29.667Z,10.07
2023-02-06T14:46:21.846Z,12.93
2023-02-06T14:54:46.568Z,7.30
2023-02-06T14:57:34.837Z,5.53
2023-02-06T15:00:24.602Z,7.55
2023-02-06T15:03:21.569Z,8.02
2023-02-06T15:06:12.772Z,8.35
2023-02-06T15:08:58.285Z,8.90
2023-02-06T15:11:51.333Z,6.53
2023-02-06T15:14:37.453Z,6.88
2023-02-06T15:17:29.277Z,8.05
2023-02-06T15:20:29.569Z,5.47
2023-02-06T15:23:35.916Z,6.57
2023-02-06T15:26:42.079Z,6.75
2023-02-06T15:29:28.662Z,7.65
2023-02-06T15:32:36.435Z,6.32
2023-02-06T15:35:35.649Z,6.40
2023-02-06T15:38:26.123Z,7.07
2023-02-06T15:41:16.169Z,7.43
2023-02-06T15:44:27.202Z,15.55
2023-02-06T15:47:25.216Z,11.60
2023-02-06T15:50:29.164Z,7.05
2023-02-06T15:53:32.145Z,7.20
2023-02-06T15:56:34.176Z,7.32
2023-02-06T15:59:28.109Z,6.85
2023-02-06T16:02:23.702Z,6.45
2023-02-06T16:05:27.253Z,6.90
2023-02-06T16:08:38.086Z,7.25
2023-02-06T16:11:51.439Z,7.15
2023-02-06T16:14:42.205Z,5.35
2023-02-06T16:17:33.539Z,7.10
2023-02-06T16:20:42.921Z,9.75
2023-02-06T16:23:31.122Z,13.27
2023-02-06T16:26:22.766Z,15.50
2023-02-06T16:29:08.554Z,16.35
2023-02-06T16:32:09.545Z,11.63
2023-02-06T16:34:55.694Z,10.98
2023-02-06T16:37:45.300Z,10.27
2023-02-06T16:40:40.352Z,11.70
2023-02-06T16:43:33.687Z,13.20
2023-02-06T16:46:27.824Z,12.07
2023-02-06T16:49:23.285Z,10.50
2023-02-06T16:52:18.399Z,10.10
2023-02-06T16:55:04.601Z,8.02
2023-02-06T16:57:59.782Z,8.50
2023-02-06T17:00:53.826Z,7.30
2023-02-06T17:03:42.287Z,7.50
2023-02-06T17:06:33.472Z,7.70
2023-02-06T17:09:22.714Z,8.45
2023-02-06T17:12:20.642Z,6.97
2023-02-06T17:15:14.670Z,5.20
2023-02-06T17:18:01.182Z,5.07
2023-02-06T17:20:49.714Z,5.18
2023-02-06T17:23:35.545Z,4.85
2023-02-06T17:26:23.055Z,5.88
2023-02-06T17:29:14.546Z,7.63
2023-02-06T17:32:01.059Z,10.18
2023-02-06T17:34:46.708Z,14.00
2023-02-06T17:37:32.913Z,14.77
2023-02-06T17:40:23.943Z,15.80
2023-02-06T17:43:09.909Z,9.63
2023-02-06T17:45:55.895Z,8.85
2023-02-06T17:48:43.473Z,7.25
2023-02-06T17:51:30.929Z,11.25
2023-02-06T17:54:19.623Z,13.80
2023-02-06T17:57:05.846Z,12.30
2023-02-06T17:59:55.672Z,10.73
2023-02-06T18:02:48.814Z,9.93
2023-02-06T18:05:41.636Z,8.32
2023-02-06T18:08:30.031Z,7.10
2023-02-06T18:11:21.554Z,7.72
2023-02-06T18:14:20.832Z,6.85
2023-02-06T18:17:08.167Z,5.57
2023-02-06T18:19:53.930Z,5.18
2023-02-06T18:22:42.449Z,5.47
2023-02-06T18:25:28.779Z,4.75
2023-02-06T18:28:17.407Z,5.47
2023-02-06T18:31:03.341Z,5.68
2023-02-06T18:33:49.250Z,6.93
2023-02-06T18:36:36.821Z,5.93
2023-02-06T18:39:22.857Z,6.00
2023-02-06T18:42:46.463Z,6.38
2023-02-06T18:45:37.029Z,5.55
2023-02-06T18:48:25.402Z,5.93
2023-02-06T18:51:11.345Z,6.00
2023-02-06T18:53:59.948Z,5.70
2023-02-06T18:56:49.529Z,6.25
2023-02-06T18:59:43.212Z,8.13
2023-02-06T19:02:31.281Z,7.18
2023-02-06T19:05:23.580Z,8.05
2023-02-06T19:08:46.333Z,7.25
2023-02-06T19:11:36.075Z,7.28
2023-02-06T19:14:25.475Z,8.10
2023-02-06T19:17:13.071Z,8.65
2023-02-06T19:20:02.765Z,8.95
2023-02-06T19:22:54.628Z,9.73
2023-02-06T19:25:41.707Z,11.20
2023-02-06T19:28:27.903Z,10.80
2023-02-06T19:31:14.093Z,14.77
2023-02-06T19:34:01.965Z,18.15
2023-02-06T19:36:47.816Z,10.05
2023-02-06T19:39:34.647Z,26.20
2023-02-06T19:42:20.112Z,18.17
2023-02-06T19:45:07.405Z,11.63
2023-02-06T19:47:53.161Z,12.85
2023-02-06T19:50:41.963Z,12.77
2023-02-06T19:53:34.260Z,14.80
2023-02-06T19:56:27.454Z,14.00
2023-02-06T19:59:25.294Z,18.15
2023-02-06T20:02:15.096Z,17.50
2023-02-06T20:05:02.546Z,19.10
2023-02-06T20:07:48.919Z,20.02
2023-02-06T20:10:38.292Z,22.67
2023-02-06T20:13:24.639Z,25.48
2023-02-06T20:16:16.370Z,31.75
2023-02-06T20:19:09.138Z,21.38
2023-02-06T20:21:58.658Z,18.88
2023-02-06T20:24:44.757Z,19.17
2023-02-06T20:27:59.356Z,17.35
2023-02-06T20:30:45.791Z,17.30
2023-02-06T20:33:33.712Z,17.10
2023-02-06T20:36:22.782Z,20.15
2023-02-06T20:39:12.049Z,15.63
2023-02-06T20:41:57.689Z,18.35
2023-02-06T20:44:44.219Z,14.95
2023-02-06T20:47:31.015Z,14.45
2023-02-06T20:50:17.190Z,13.55
2023-02-06T20:53:02.719Z,11.15
2023-02-06T20:55:48.188Z,13.68
2023-02-06T20:58:33.735Z,12.43
2023-02-06T21:01:26.167Z,13.50
2023-02-06T21:04:17.642Z,11.73
2023-02-06T21:07:03.804Z,16.77
2023-02-06T21:09:50.111Z,17.67
2023-02-06T21:12:36.910Z,16.58
2023-02-06T21:15:22.342Z,14.23
2023-02-06T21:18:08.228Z,15.43
2023-02-06T21:20:56.113Z,16.80
2023-02-06T21:23:42.723Z,14.60
2023-02-06T21:26:29.281Z,14.35
2023-02-06T21:29:15.960Z,11.93
2023-02-06T21:32:13.353Z,13.40
2023-02-06T21:35:00.031Z,13.02
2023-02-06T21:37:45.961Z,11.98
2023-02-06T21:40:31.570Z,12.38
2023-02-06T21:43:17.364Z,13.13
2023-02-06T21:46:03.687Z,13.13
2023-02-06T21:48:54.066Z,13.38
2023-02-06T21:51:39.759Z,14.38
2023-02-06T21:54:25.276Z,16.60
2023-02-06T21:57:11.438Z,17.73
2023-02-06T21:59:56.944Z,16.15
2023-02-06T22:02:42.663Z,16.25
2023-02-06T22:05:29.000Z,15.68
2023-02-06T22:08:14.735Z,14.38
2023-02-06T22:11:00.418Z,14.95
2023-02-06T22:13:46.437Z,14.40
2023-02-06T22:16:32.033Z,11.75
2023-02-06T22:19:17.944Z,14.02
2023-02-06T22:22:04.291Z,14.48
2023-02-06T22:24:50.980Z,13.85
2023-02-06T22:27:37.230Z,13.40
2023-02-06T22:30:24.511Z,15.27
2023-02-06T22:33:09.821Z,14.10
2023-02-06T22:35:55.209Z,15.40
2023-02-06T22:38:43.414Z,15.00
2023-02-06T22:41:29.996Z,13.38
2023-02-06T22:44:17.051Z,15.20
2023-02-06T22:47:02.486Z,13.43
2023-02-06T22:49:50.825Z,13.65
2023-02-06T22:52:54.991Z,13.07
2023-02-06T22:55:59.082Z,13.23
2023-02-06T22:58:44.907Z,17.45
2023-02-06T23:01:36.580Z,22.20
2023-02-06T23:04:25.313Z,25.05
2023-02-06T23:07:10.759Z,20.20
2023-02-06T23:09:56.295Z,19.95
2023-02-06T23:12:41.992Z,13.95
2023-02-06T23:15:27.562Z,16.48
2023-02-06T23:18:13.099Z,18.73
2023-02-06T23:21:06.810Z,16.63
2023-02-06T23:23:55.071Z,16.55
2023-02-06T23:26:42.585Z,16.60
2023-02-06T23:29:28.481Z,19.70
2023-02-06T23:32:14.246Z,17.63
2023-02-06T23:34:59.872Z,17.42
2023-02-06T23:37:45.596Z,21.13
2023-02-06T23:40:31.850Z,17.55
2023-02-06T23:43:17.963Z,20.50
2023-02-06T23:46:04.870Z,19.77
2023-02-06T23:48:51.903Z,19.80
2023-02-06T23:51:38.294Z,17.83
2023-02-06T23:54:23.718Z,19.55
2023-02-06T23:57:09.138Z,18.00
2023-02-06T23:59:55.420Z,17.48
